sensor_id;sensor_type;location;lat;lon;timestamp;P1;durP1;ratioP1;P2;durP2;ratioP2
12165;SDS011;6146;48.128;11.476;2023-06-24T00:01:12;4.63;;;3.43;;
12165;SDS011;6146;48.128;11.476;2023-06-24T00:03:38;4.37;;;3.97;;
12165;SDS011;6146;48.128;11.476;2023-06-24T00:06:04;3.90;;;3.50;;
12165;SDS011;6146;48.128;11.476;2023-06-24T00:08:30;4.20;;;3.80;;
12165;SDS011;6146;48.128;11.476;2023-06-24T00:11:04;4.20;;;3.80;;
12165;SDS011;6146;48.128;11.476;2023-06-24T00:13:30;4.60;;;3.83;;
12165;SDS011;6146;48.128;11.476;2023-06-24T00:15:56;4.00;;;3.60;;
12165;SDS011;6146;48.128;11.476;2023-06-24T00:18:21;3.90;;;3.60;;
12165;SDS011;6146;48.128;11.476;2023-06-24T00:20:49;5.23;;;4.07;;
12165;SDS011;6146;48.128;11.476;2023-06-24T00:23:16;5.03;;;3.93;;
12165;SDS011;6146;48.128;11.476;2023-06-24T00:25:45;3.90;;;3.60;;
12165;SDS011;6146;48.128;11.476;2023-06-24T00:28:11;4.50;;;4.10;;
12165;SDS011;6146;48.128;11.476;2023-06-24T00:30:36;3.93;;;3.60;;
12165;SDS011;6146;48.128;11.476;2023-06-24T00:33:02;4.30;;;3.90;;
12165;SDS011;6146;48.128;11.476;2023-06-24T00:35:27;4.60;;;3.73;;
12165;SDS011;6146;48.128;11.476;2023-06-24T00:37:53;4.33;;;3.77;;
12165;SDS011;6146;48.128;11.476;2023-06-24T00:40:23;3.87;;;3.37;;
12165;SDS011;6146;48.128;11.476;2023-06-24T00:42:48;4.43;;;3.87;;
12165;SDS011;6146;48.128;11.476;2023-06-24T00:45:15;6.03;;;3.73;;
12165;SDS011;6146;48.128;11.476;2023-06-24T00:47:42;4.37;;;3.97;;
12165;SDS011;6146;48.128;11.476;2023-06-24T00:50:08;4.23;;;3.40;;
12165;SDS011;6146;48.128;11.476;2023-06-24T00:52:37;5.10;;;4.03;;
12165;SDS011;6146;48.128;11.476;2023-06-24T00:55:07;4.00;;;3.60;;
12165;SDS011;6146;48.128;11.476;2023-06-24T00:57:40;4.40;;;3.80;;
12165;SDS011;6146;48.128;11.476;2023-06-24T01:00:08;5.30;;;3.53;;
12165;SDS011;6146;48.128;11.476;2023-06-24T01:02:40;3.77;;;3.47;;
12165;SDS011;6146;48.128;11.476;2023-06-24T01:05:07;4.50;;;4.10;;
12165;SDS011;6146;48.128;11.476;2023-06-24T01:07:33;3.93;;;3.50;;
12165;SDS011;6146;48.128;11.476;2023-06-24T01:10:02;3.97;;;3.57;;
12165;SDS011;6146;48.128;11.476;2023-06-24T01:12:30;4.60;;;3.47;;
12165;SDS011;6146;48.128;11.476;2023-06-24T01:14:58;4.03;;;3.63;;
12165;SDS011;6146;48.128;11.476;2023-06-24T01:17:24;3.90;;;3.50;;
12165;SDS011;6146;48.128;11.476;2023-06-24T01:33:22;4.10;;;3.70;;
12165;SDS011;6146;48.128;11.476;2023-06-24T01:35:51;3.93;;;3.53;;
12165;SDS011;6146;48.128;11.476;2023-06-24T01:38:24;4.03;;;3.63;;
12165;SDS011;6146;48.128;11.476;2023-06-24T01:40:56;4.03;;;3.50;;
12165;SDS011;6146;48.128;11.476;2023-06-24T01:43:22;3.97;;;3.57;;
12165;SDS011;6146;48.128;11.476;2023-06-24T01:45:50;3.53;;;3.23;;
12165;SDS011;6146;48.128;11.476;2023-06-24T01:48:25;3.80;;;3.50;;
12165;SDS011;6146;48.128;11.476;2023-06-24T01:50:55;3.67;;;3.37;;
12165;SDS011;6146;48.128;11.476;2023-06-24T01:53:24;4.03;;;3.67;;
12165;SDS011;6146;48.128;11.476;2023-06-24T01:55:54;4.47;;;3.50;;
12165;SDS011;6146;48.128;11.476;2023-06-24T01:58:22;3.90;;;3.50;;
12165;SDS011;6146;48.128;11.476;2023-06-24T02:00:48;3.73;;;3.43;;
12165;SDS011;6146;48.128;11.476;2023-06-24T02:03:15;3.93;;;3.53;;
12165;SDS011;6146;48.128;11.476;2023-06-24T02:05:41;4.40;;;3.63;;
12165;SDS011;6146;48.128;11.476;2023-06-24T02:08:09;3.97;;;3.57;;
12165;SDS011;6146;48.128;11.476;2023-06-24T02:10:38;4.73;;;3.97;;
12165;SDS011;6146;48.128;11.476;2023-06-24T02:13:05;4.20;;;3.80;;
12165;SDS011;6146;48.128;11.476;2023-06-24T02:15:34;3.90;;;3.50;;
12165;SDS011;6146;48.128;11.476;2023-06-24T02:18:01;3.60;;;3.30;;
12165;SDS011;6146;48.128;11.476;2023-06-24T02:20:29;4.03;;;3.63;;
12165;SDS011;6146;48.128;11.476;2023-06-24T02:22:56;3.60;;;3.30;;
12165;SDS011;6146;48.128;11.476;2023-06-24T02:25:23;4.20;;;3.80;;
12165;SDS011;6146;48.128;11.476;2023-06-24T02:27:51;3.67;;;3.33;;
12165;SDS011;6146;48.128;11.476;2023-06-24T02:30:18;4.07;;;3.67;;
12165;SDS011;6146;48.128;11.476;2023-06-24T02:32:45;3.97;;;3.40;;
12165;SDS011;6146;48.128;11.476;2023-06-24T02:35:11;4.10;;;3.70;;
12165;SDS011;6146;48.128;11.476;2023-06-24T02:37:36;4.03;;;3.30;;
12165;SDS011;6146;48.128;11.476;2023-06-24T02:40:02;4.30;;;3.67;;
12165;SDS011;6146;48.128;11.476;2023-06-24T02:42:30;4.13;;;3.60;;
12165;SDS011;6146;48.128;11.476;2023-06-24T02:44:56;5.00;;;4.00;;
12165;SDS011;6146;48.128;11.476;2023-06-24T02:47:22;3.80;;;3.50;;
12165;SDS011;6146;48.128;11.476;2023-06-24T02:49:48;5.33;;;3.43;;
12165;SDS011;6146;48.128;11.476;2023-06-24T02:52:16;3.57;;;3.27;;
12165;SDS011;6146;48.128;11.476;2023-06-24T02:54:42;4.30;;;3.90;;
12165;SDS011;6146;48.128;11.476;2023-06-24T02:57:08;3.90;;;3.60;;
12165;SDS011;6146;48.128;11.476;2023-06-24T02:59:34;4.20;;;3.80;;
12165;SDS011;6146;48.128;11.476;2023-06-24T03:02:00;3.60;;;3.10;;
12165;SDS011;6146;48.128;11.476;2023-06-24T03:04:28;4.17;;;3.77;;
12165;SDS011;6146;48.128;11.476;2023-06-24T03:06:54;3.90;;;3.40;;
12165;SDS011;6146;48.128;11.476;2023-06-24T03:09:21;4.40;;;4.00;;
12165;SDS011;6146;48.128;11.476;2023-06-24T03:11:48;3.90;;;3.53;;
12165;SDS011;6146;48.128;11.476;2023-06-24T03:14:13;4.53;;;3.97;;
12165;SDS011;6146;48.128;11.476;2023-06-24T03:16:39;5.43;;;3.90;;
12165;SDS011;6146;48.128;11.476;2023-06-24T03:19:05;4.77;;;3.57;;
12165;SDS011;6146;48.128;11.476;2023-06-24T03:21:31;4.17;;;3.70;;
12165;SDS011;6146;48.128;11.476;2023-06-24T03:23:57;4.03;;;3.60;;
12165;SDS011;6146;48.128;11.476;2023-06-24T03:26:24;4.60;;;3.80;;
12165;SDS011;6146;48.128;11.476;2023-06-24T03:28:58;3.90;;;3.50;;
12165;SDS011;6146;48.128;11.476;2023-06-24T03:31:23;3.73;;;3.43;;
12165;SDS011;6146;48.128;11.476;2023-06-24T03:33:49;4.13;;;3.73;;
12165;SDS011;6146;48.128;11.476;2023-06-24T03:36:15;3.57;;;3.27;;
12165;SDS011;6146;48.128;11.476;2023-06-24T03:38:40;3.50;;;3.20;;
12165;SDS011;6146;48.128;11.476;2023-06-24T03:41:06;4.03;;;3.40;;
12165;SDS011;6146;48.128;11.476;2023-06-24T03:43:31;5.00;;;3.50;;
12165;SDS011;6146;48.128;11.476;2023-06-24T03:45:57;3.93;;;3.10;;
12165;SDS011;6146;48.128;11.476;2023-06-24T03:48:23;3.90;;;3.60;;
12165;SDS011;6146;48.128;11.476;2023-06-24T03:50:48;4.00;;;3.60;;
12165;SDS011;6146;48.128;11.476;2023-06-24T03:53:14;4.20;;;3.80;;
12165;SDS011;6146;48.128;11.476;2023-06-24T03:55:39;3.97;;;3.63;;
12165;SDS011;6146;48.128;11.476;2023-06-24T03:58:05;3.53;;;3.23;;
12165;SDS011;6146;48.128;11.476;2023-06-24T04:00:31;4.13;;;3.73;;
12165;SDS011;6146;48.128;11.476;2023-06-24T04:02:56;4.37;;;3.97;;
12165;SDS011;6146;48.128;11.476;2023-06-24T04:05:26;4.30;;;3.90;;
12165;SDS011;6146;48.128;11.476;2023-06-24T04:07:52;4.03;;;3.20;;
12165;SDS011;6146;48.128;11.476;2023-06-24T04:10:18;4.33;;;3.90;;
12165;SDS011;6146;48.128;11.476;2023-06-24T04:12:47;4.23;;;3.83;;
12165;SDS011;6146;48.128;11.476;2023-06-24T04:15:12;4.03;;;3.73;;
12165;SDS011;6146;48.128;11.476;2023-06-24T04:17:38;4.43;;;4.00;;
12165;SDS011;6146;48.128;11.476;2023-06-24T04:20:04;4.00;;;3.70;;
12165;SDS011;6146;48.128;11.476;2023-06-24T04:22:33;4.23;;;3.83;;
12165;SDS011;6146;48.128;11.476;2023-06-24T04:24:59;4.17;;;3.77;;
12165;SDS011;6146;48.128;11.476;2023-06-24T04:27:25;3.70;;;3.40;;
12165;SDS011;6146;48.128;11.476;2023-06-24T04:29:51;4.47;;;3.60;;
12165;SDS011;6146;48.128;11.476;2023-06-24T04:32:16;4.17;;;3.30;;
12165;SDS011;6146;48.128;11.476;2023-06-24T04:34:42;3.60;;;3.30;;
12165;SDS011;6146;48.128;11.476;2023-06-24T04:37:07;3.70;;;3.40;;
12165;SDS011;6146;48.128;11.476;2023-06-24T04:39:33;3.90;;;3.47;;
12165;SDS011;6146;48.128;11.476;2023-06-24T04:41:58;3.67;;;3.37;;
12165;SDS011;6146;48.128;11.476;2023-06-24T04:44:24;4.60;;;4.20;;
12165;SDS011;6146;48.128;11.476;2023-06-24T04:46:49;3.47;;;3.17;;
12165;SDS011;6146;48.128;11.476;2023-06-24T04:49:17;4.07;;;3.67;;
12165;SDS011;6146;48.128;11.476;2023-06-24T04:51:42;3.57;;;3.27;;
12165;SDS011;6146;48.128;11.476;2023-06-24T04:54:08;4.13;;;3.73;;
12165;SDS011;6146;48.128;11.476;2023-06-24T04:56:34;3.70;;;3.10;;
12165;SDS011;6146;48.128;11.476;2023-06-24T04:59:00;3.90;;;3.50;;
12165;SDS011;6146;48.128;11.476;2023-06-24T05:01:26;3.90;;;3.47;;
12165;SDS011;6146;48.128;11.476;2023-06-24T05:03:51;3.70;;;3.30;;
12165;SDS011;6146;48.128;11.476;2023-06-24T05:06:17;4.00;;;3.60;;
12165;SDS011;6146;48.128;11.476;2023-06-24T05:08:42;3.73;;;3.40;;
12165;SDS011;6146;48.128;11.476;2023-06-24T05:11:08;6.57;;;4.00;;
12165;SDS011;6146;48.128;11.476;2023-06-24T05:13:33;4.67;;;3.73;;
12165;SDS011;6146;48.128;11.476;2023-06-24T05:15:59;4.00;;;3.60;;
12165;SDS011;6146;48.128;11.476;2023-06-24T05:18:24;4.00;;;3.60;;
12165;SDS011;6146;48.128;11.476;2023-06-24T05:20:50;3.43;;;3.13;;
12165;SDS011;6146;48.128;11.476;2023-06-24T05:23:15;4.87;;;3.13;;
12165;SDS011;6146;48.128;11.476;2023-06-24T05:25:41;4.80;;;3.30;;
12165;SDS011;6146;48.128;11.476;2023-06-24T05:28:07;3.67;;;3.23;;
12165;SDS011;6146;48.128;11.476;2023-06-24T05:30:32;3.33;;;3.03;;
12165;SDS011;6146;48.128;11.476;2023-06-24T05:32:58;3.63;;;3.33;;
12165;SDS011;6146;48.128;11.476;2023-06-24T05:35:23;3.33;;;3.00;;
12165;SDS011;6146;48.128;11.476;2023-06-24T05:37:49;3.53;;;3.23;;
12165;SDS011;6146;48.128;11.476;2023-06-24T05:40:14;3.40;;;3.03;;
12165;SDS011;6146;48.128;11.476;2023-06-24T05:42:40;4.73;;;3.30;;
12165;SDS011;6146;48.128;11.476;2023-06-24T05:45:06;3.60;;;3.20;;
12165;SDS011;6146;48.128;11.476;2023-06-24T05:47:32;4.30;;;3.43;;
12165;SDS011;6146;48.128;11.476;2023-06-24T05:49:58;3.40;;;3.10;;
12165;SDS011;6146;48.128;11.476;2023-06-24T05:52:23;3.90;;;3.40;;
12165;SDS011;6146;48.128;11.476;2023-06-24T05:54:49;3.67;;;3.00;;
12165;SDS011;6146;48.128;11.476;2023-06-24T05:57:15;5.00;;;3.27;;
12165;SDS011;6146;48.128;11.476;2023-06-24T05:59:41;4.03;;;3.27;;
12165;SDS011;6146;48.128;11.476;2023-06-24T06:02:06;4.00;;;3.20;;
12165;SDS011;6146;48.128;11.476;2023-06-24T06:04:32;3.40;;;3.10;;
12165;SDS011;6146;48.128;11.476;2023-06-24T06:06:58;4.00;;;3.57;;
12165;SDS011;6146;48.128;11.476;2023-06-24T06:09:23;3.70;;;3.40;;
12165;SDS011;6146;48.128;11.476;2023-06-24T06:11:49;3.43;;;3.13;;
12165;SDS011;6146;48.128;11.476;2023-06-24T06:14:15;4.73;;;3.57;;
12165;SDS011;6146;48.128;11.476;2023-06-24T06:16:40;3.17;;;2.87;;
12165;SDS011;6146;48.128;11.476;2023-06-24T06:19:06;3.40;;;3.10;;
12165;SDS011;6146;48.128;11.476;2023-06-24T06:21:31;4.30;;;3.20;;
12165;SDS011;6146;48.128;11.476;2023-06-24T06:23:57;3.40;;;3.10;;
12165;SDS011;6146;48.128;11.476;2023-06-24T06:26:23;3.70;;;3.37;;
12165;SDS011;6146;48.128;11.476;2023-06-24T06:28:49;3.53;;;2.93;;
12165;SDS011;6146;48.128;11.476;2023-06-24T06:31:15;4.43;;;3.27;;
12165;SDS011;6146;48.128;11.476;2023-06-24T06:33:41;3.23;;;2.93;;
12165;SDS011;6146;48.128;11.476;2023-06-24T06:36:07;3.63;;;3.33;;
12165;SDS011;6146;48.128;11.476;2023-06-24T06:38:32;6.57;;;3.40;;
12165;SDS011;6146;48.128;11.476;2023-06-24T06:40:59;2.97;;;2.67;;
12165;SDS011;6146;48.128;11.476;2023-06-24T06:43:25;3.40;;;3.10;;
12165;SDS011;6146;48.128;11.476;2023-06-24T06:45:50;3.70;;;2.73;;
12165;SDS011;6146;48.128;11.476;2023-06-24T06:48:16;3.53;;;2.83;;
12165;SDS011;6146;48.128;11.476;2023-06-24T06:50:41;4.50;;;3.10;;
12165;SDS011;6146;48.128;11.476;2023-06-24T06:53:07;3.20;;;2.70;;
12165;SDS011;6146;48.128;11.476;2023-06-24T06:55:32;3.47;;;3.17;;
12165;SDS011;6146;48.128;11.476;2023-06-24T06:57:58;2.67;;;2.47;;
12165;SDS011;6146;48.128;11.476;2023-06-24T07:00:23;2.97;;;2.53;;
12165;SDS011;6146;48.128;11.476;2023-06-24T07:02:49;4.35;;;2.90;;
12165;SDS011;6146;48.128;11.476;2023-06-24T07:05:15;2.90;;;2.70;;
12165;SDS011;6146;48.128;11.476;2023-06-24T07:07:40;3.33;;;2.80;;
12165;SDS011;6146;48.128;11.476;2023-06-24T07:10:07;3.13;;;2.47;;
12165;SDS011;6146;48.128;11.476;2023-06-24T07:12:33;2.90;;;2.60;;
12165;SDS011;6146;48.128;11.476;2023-06-24T07:14:58;3.10;;;2.80;;
12165;SDS011;6146;48.128;11.476;2023-06-24T07:17:24;2.70;;;2.50;;
12165;SDS011;6146;48.128;11.476;2023-06-24T07:19:49;2.85;;;2.60;;
12165;SDS011;6146;48.128;11.476;2023-06-24T07:22:15;2.85;;;2.55;;
12165;SDS011;6146;48.128;11.476;2023-06-24T07:24:41;3.30;;;2.60;;
12165;SDS011;6146;48.128;11.476;2023-06-24T07:27:07;3.65;;;2.25;;
12165;SDS011;6146;48.128;11.476;2023-06-24T07:29:32;2.50;;;2.30;;
12165;SDS011;6146;48.128;11.476;2023-06-24T07:31:58;2.60;;;2.40;;
12165;SDS011;6146;48.128;11.476;2023-06-24T07:34:24;2.53;;;2.33;;
12165;SDS011;6146;48.128;11.476;2023-06-24T07:36:49;2.30;;;2.10;;
12165;SDS011;6146;48.128;11.476;2023-06-24T07:39:15;2.60;;;2.40;;
12165;SDS011;6146;48.128;11.476;2023-06-24T07:41:41;3.93;;;2.50;;
12165;SDS011;6146;48.128;11.476;2023-06-24T07:44:07;2.60;;;2.40;;
12165;SDS011;6146;48.128;11.476;2023-06-24T07:46:33;3.10;;;2.67;;
12165;SDS011;6146;48.128;11.476;2023-06-24T07:48:59;2.60;;;2.40;;
12165;SDS011;6146;48.128;11.476;2023-06-24T07:51:25;2.87;;;2.30;;
12165;SDS011;6146;48.128;11.476;2023-06-24T07:53:50;2.60;;;2.40;;
12165;SDS011;6146;48.128;11.476;2023-06-24T07:56:16;3.03;;;2.73;;
12165;SDS011;6146;48.128;11.476;2023-06-24T07:58:41;2.90;;;2.63;;
12165;SDS011;6146;48.128;11.476;2023-06-24T08:01:07;3.07;;;2.77;;
12165;SDS011;6146;48.128;11.476;2023-06-24T08:03:33;2.93;;;2.67;;
12165;SDS011;6146;48.128;11.476;2023-06-24T08:05:59;3.20;;;2.50;;
12165;SDS011;6146;48.128;11.476;2023-06-24T08:08:24;3.17;;;2.77;;
12165;SDS011;6146;48.128;11.476;2023-06-24T08:10:50;3.70;;;3.13;;
12165;SDS011;6146;48.128;11.476;2023-06-24T08:13:15;3.93;;;2.90;;
12165;SDS011;6146;48.128;11.476;2023-06-24T08:15:41;2.53;;;2.33;;
12165;SDS011;6146;48.128;11.476;2023-06-24T08:18:07;3.23;;;2.93;;
12165;SDS011;6146;48.128;11.476;2023-06-24T08:20:32;3.13;;;2.60;;
12165;SDS011;6146;48.128;11.476;2023-06-24T08:22:58;2.80;;;2.57;;
12165;SDS011;6146;48.128;11.476;2023-06-24T08:25:23;2.87;;;2.53;;
12165;SDS011;6146;48.128;11.476;2023-06-24T08:33:17;3.47;;;3.17;;
12165;SDS011;6146;48.128;11.476;2023-06-24T08:35:43;3.30;;;3.00;;
12165;SDS011;6146;48.128;11.476;2023-06-24T08:38:09;3.10;;;2.80;;
12165;SDS011;6146;48.128;11.476;2023-06-24T08:40:34;2.75;;;2.55;;
12165;SDS011;6146;48.128;11.476;2023-06-24T08:43:00;3.92;;;3.08;;
12165;SDS011;6146;48.128;11.476;2023-06-24T08:45:26;2.60;;;2.40;;
12165;SDS011;6146;48.128;11.476;2023-06-24T08:51:05;3.30;;;2.85;;
12165;SDS011;6146;48.128;11.476;2023-06-24T08:53:33;2.70;;;2.50;;
12165;SDS011;6146;48.128;11.476;2023-06-24T08:56:00;2.92;;;2.47;;
12165;SDS011;6146;48.128;11.476;2023-06-24T08:58:26;2.80;;;2.60;;
12165;SDS011;6146;48.128;11.476;2023-06-24T09:00:52;2.55;;;2.35;;
12165;SDS011;6146;48.128;11.476;2023-06-24T09:03:18;3.10;;;2.35;;
12165;SDS011;6146;48.128;11.476;2023-06-24T09:05:43;2.50;;;2.30;;
12165;SDS011;6146;48.128;11.476;2023-06-24T09:08:09;2.38;;;2.20;;
12165;SDS011;6146;48.128;11.476;2023-06-24T09:10:36;2.60;;;2.40;;
12165;SDS011;6146;48.128;11.476;2023-06-24T09:13:03;2.75;;;2.25;;
12165;SDS011;6146;48.128;11.476;2023-06-24T09:15:30;3.30;;;2.30;;
12165;SDS011;6146;48.128;11.476;2023-06-24T09:17:56;2.95;;;2.65;;
12165;SDS011;6146;48.128;11.476;2023-06-24T09:20:22;2.92;;;2.60;;
12165;SDS011;6146;48.128;11.476;2023-06-24T09:22:48;2.78;;;2.58;;
12165;SDS011;6146;48.128;11.476;2023-06-24T09:25:17;3.00;;;2.70;;
12165;SDS011;6146;48.128;11.476;2023-06-24T09:27:47;2.80;;;2.60;;
12165;SDS011;6146;48.128;11.476;2023-06-24T09:30:17;2.78;;;2.58;;
12165;SDS011;6146;48.128;11.476;2023-06-24T09:32:44;3.13;;;2.47;;
12165;SDS011;6146;48.128;11.476;2023-06-24T09:35:10;3.03;;;2.70;;
12165;SDS011;6146;48.128;11.476;2023-06-24T09:37:36;2.67;;;2.47;;
12165;SDS011;6146;48.128;11.476;2023-06-24T09:40:02;2.90;;;2.70;;
12165;SDS011;6146;48.128;11.476;2023-06-24T09:42:32;4.22;;;2.90;;
12165;SDS011;6146;48.128;11.476;2023-06-24T09:44:57;3.10;;;2.80;;
12165;SDS011;6146;48.128;11.476;2023-06-24T09:47:23;2.85;;;2.65;;
12165;SDS011;6146;48.128;11.476;2023-06-24T09:49:53;2.97;;;2.67;;
12165;SDS011;6146;48.128;11.476;2023-06-24T09:52:20;2.92;;;2.30;;
12165;SDS011;6146;48.128;11.476;2023-06-24T09:54:46;2.80;;;2.60;;
12165;SDS011;6146;48.128;11.476;2023-06-24T09:57:16;2.90;;;2.70;;
12165;SDS011;6146;48.128;11.476;2023-06-24T09:59:46;2.72;;;2.53;;
12165;SDS011;6146;48.128;11.476;2023-06-24T10:02:13;2.40;;;2.20;;
12165;SDS011;6146;48.128;11.476;2023-06-24T10:04:40;2.42;;;2.13;;
12165;SDS011;6146;48.128;11.476;2023-06-24T10:07:07;2.60;;;2.40;;
12165;SDS011;6146;48.128;11.476;2023-06-24T10:09:32;3.00;;;2.28;;
12165;SDS011;6146;48.128;11.476;2023-06-24T10:11:58;2.35;;;2.15;;
12165;SDS011;6146;48.128;11.476;2023-06-24T10:14:25;3.28;;;2.40;;
12165;SDS011;6146;48.128;11.476;2023-06-24T10:16:50;2.65;;;2.28;;
12165;SDS011;6146;48.128;11.476;2023-06-24T10:19:19;2.35;;;2.15;;
12165;SDS011;6146;48.128;11.476;2023-06-24T10:21:52;2.50;;;2.30;;
12165;SDS011;6146;48.128;11.476;2023-06-24T10:24:28;3.13;;;2.28;;
12165;SDS011;6146;48.128;11.476;2023-06-24T10:27:17;2.70;;;2.50;;
12165;SDS011;6146;48.128;11.476;2023-06-24T10:29:47;2.83;;;2.63;;
12165;SDS011;6146;48.128;11.476;2023-06-24T10:32:14;2.65;;;2.45;;
12165;SDS011;6146;48.128;11.476;2023-06-24T10:34:40;2.60;;;2.40;;
12165;SDS011;6146;48.128;11.476;2023-06-24T10:45:13;2.38;;;2.17;;
12165;SDS011;6146;48.128;11.476;2023-06-24T10:50:07;2.63;;;2.42;;
12165;SDS011;6146;48.128;11.476;2023-06-24T10:52:38;2.80;;;2.50;;
12165;SDS011;6146;48.128;11.476;2023-06-24T10:55:05;2.70;;;2.50;;
12165;SDS011;6146;48.128;11.476;2023-06-24T10:57:32;2.45;;;2.25;;
12165;SDS011;6146;48.128;11.476;2023-06-24T10:59:57;2.40;;;2.20;;
12165;SDS011;6146;48.128;11.476;2023-06-24T11:02:24;2.75;;;2.28;;
12165;SDS011;6146;48.128;11.476;2023-06-24T11:04:51;2.42;;;2.22;;
12165;SDS011;6146;48.128;11.476;2023-06-24T11:07:22;2.55;;;2.20;;
12165;SDS011;6146;48.128;11.476;2023-06-24T11:09:55;2.70;;;2.50;;
12165;SDS011;6146;48.128;11.476;2023-06-24T11:12:34;3.47;;;3.05;;
12165;SDS011;6146;48.128;11.476;2023-06-24T11:15:03;2.38;;;2.17;;
12165;SDS011;6146;48.128;11.476;2023-06-24T11:17:29;2.95;;;2.38;;
12165;SDS011;6146;48.128;11.476;2023-06-24T11:19:55;2.67;;;2.47;;
12165;SDS011;6146;48.128;11.476;2023-06-24T11:22:22;2.55;;;2.35;;
12165;SDS011;6146;48.128;11.476;2023-06-24T11:24:49;2.45;;;2.25;;
12165;SDS011;6146;48.128;11.476;2023-06-24T11:27:15;2.92;;;2.72;;
12165;SDS011;6146;48.128;11.476;2023-06-24T11:29:41;3.03;;;2.60;;
12165;SDS011;6146;48.128;11.476;2023-06-24T11:32:07;3.33;;;2.75;;
12165;SDS011;6146;48.128;11.476;2023-06-24T11:34:34;2.60;;;2.40;;
12165;SDS011;6146;48.128;11.476;2023-06-24T11:37:13;2.67;;;2.47;;
12165;SDS011;6146;48.128;11.476;2023-06-24T11:39:43;3.25;;;2.95;;
12165;SDS011;6146;48.128;11.476;2023-06-24T11:42:09;2.95;;;2.60;;
12165;SDS011;6146;48.128;11.476;2023-06-24T11:44:40;3.50;;;2.95;;
12165;SDS011;6146;48.128;11.476;2023-06-24T11:47:10;3.10;;;2.80;;
12165;SDS011;6146;48.128;11.476;2023-06-24T11:49:49;3.35;;;3.03;;
12165;SDS011;6146;48.128;11.476;2023-06-24T11:52:15;4.00;;;2.65;;
12165;SDS011;6146;48.128;11.476;2023-06-24T11:54:41;3.33;;;2.92;;
12165;SDS011;6146;48.128;11.476;2023-06-24T11:57:10;3.42;;;3.13;;
12165;SDS011;6146;48.128;11.476;2023-06-24T11:59:37;2.97;;;2.70;;
12165;SDS011;6146;48.128;11.476;2023-06-24T12:02:03;3.00;;;2.70;;
12165;SDS011;6146;48.128;11.476;2023-06-24T12:04:32;3.25;;;2.95;;
12165;SDS011;6146;48.128;11.476;2023-06-24T12:06:59;3.10;;;2.85;;
12165;SDS011;6146;48.128;11.476;2023-06-24T12:09:25;3.40;;;3.10;;
12165;SDS011;6146;48.128;11.476;2023-06-24T12:11:51;3.30;;;3.00;;
12165;SDS011;6146;48.128;11.476;2023-06-24T12:14:17;2.90;;;2.70;;
12165;SDS011;6146;48.128;11.476;2023-06-24T12:16:43;3.33;;;3.00;;
12165;SDS011;6146;48.128;11.476;2023-06-24T12:19:09;2.95;;;2.75;;
12165;SDS011;6146;48.128;11.476;2023-06-24T12:21:35;3.13;;;2.83;;
12165;SDS011;6146;48.128;11.476;2023-06-24T12:24:01;3.30;;;3.00;;
12165;SDS011;6146;48.128;11.476;2023-06-24T12:26:27;3.13;;;2.70;;
12165;SDS011;6146;48.128;11.476;2023-06-24T12:28:56;3.80;;;3.45;;
12165;SDS011;6146;48.128;11.476;2023-06-24T12:31:22;3.65;;;3.03;;
12165;SDS011;6146;48.128;11.476;2023-06-24T12:33:48;3.13;;;2.83;;
12165;SDS011;6146;48.128;11.476;2023-06-24T12:36:13;3.50;;;3.08;;
12165;SDS011;6146;48.128;11.476;2023-06-24T12:38:39;3.45;;;3.15;;
12165;SDS011;6146;48.128;11.476;2023-06-24T12:41:05;2.97;;;2.75;;
12165;SDS011;6146;48.128;11.476;2023-06-24T12:43:31;3.25;;;2.95;;
12165;SDS011;6146;48.128;11.476;2023-06-24T12:45:57;3.50;;;3.20;;
12165;SDS011;6146;48.128;11.476;2023-06-24T12:48:22;3.90;;;3.00;;
12165;SDS011;6146;48.128;11.476;2023-06-24T12:50:48;3.20;;;2.90;;
12165;SDS011;6146;48.128;11.476;2023-06-24T12:53:17;3.03;;;2.65;;
12165;SDS011;6146;48.128;11.476;2023-06-24T12:55:43;2.90;;;2.70;;
12165;SDS011;6146;48.128;11.476;2023-06-24T12:58:09;3.00;;;2.80;;
12165;SDS011;6146;48.128;11.476;2023-06-24T13:00:34;2.95;;;2.75;;
12165;SDS011;6146;48.128;11.476;2023-06-24T13:03:00;3.00;;;2.70;;
12165;SDS011;6146;48.128;11.476;2023-06-24T13:05:26;3.33;;;3.03;;
12165;SDS011;6146;48.128;11.476;2023-06-24T13:07:51;3.10;;;2.90;;
12165;SDS011;6146;48.128;11.476;2023-06-24T13:10:17;4.35;;;3.35;;
12165;SDS011;6146;48.128;11.476;2023-06-24T13:12:42;3.78;;;3.38;;
12165;SDS011;6146;48.128;11.476;2023-06-24T13:15:08;3.10;;;2.90;;
12165;SDS011;6146;48.128;11.476;2023-06-24T13:17:35;3.17;;;2.97;;
12165;SDS011;6146;48.128;11.476;2023-06-24T13:20:01;3.08;;;2.80;;
12165;SDS011;6146;48.128;11.476;2023-06-24T13:22:29;3.35;;;3.05;;
12165;SDS011;6146;48.128;11.476;2023-06-24T13:24:55;3.90;;;3.45;;
12165;SDS011;6146;48.128;11.476;2023-06-24T13:27:20;3.28;;;2.97;;
12165;SDS011;6146;48.128;11.476;2023-06-24T13:29:46;4.25;;;3.25;;
12165;SDS011;6146;48.128;11.476;2023-06-24T13:32:12;3.67;;;3.10;;
12165;SDS011;6146;48.128;11.476;2023-06-24T13:34:38;3.10;;;2.80;;
12165;SDS011;6146;48.128;11.476;2023-06-24T13:37:03;3.20;;;2.90;;
12165;SDS011;6146;48.128;11.476;2023-06-24T13:39:29;3.73;;;3.33;;
12165;SDS011;6146;48.128;11.476;2023-06-24T13:41:56;3.33;;;3.03;;
12165;SDS011;6146;48.128;11.476;2023-06-24T13:44:22;3.20;;;2.90;;
12165;SDS011;6146;48.128;11.476;2023-06-24T13:46:48;3.30;;;3.00;;
12165;SDS011;6146;48.128;11.476;2023-06-24T13:49:15;3.20;;;2.90;;
12165;SDS011;6146;48.128;11.476;2023-06-24T13:51:41;3.60;;;3.30;;
12165;SDS011;6146;48.128;11.476;2023-06-24T13:54:07;3.67;;;3.37;;
12165;SDS011;6146;48.128;11.476;2023-06-24T13:56:32;3.43;;;3.13;;
12165;SDS011;6146;48.128;11.476;2023-06-24T13:58:58;3.70;;;3.40;;
12165;SDS011;6146;48.128;11.476;2023-06-24T14:01:24;4.10;;;3.03;;
12165;SDS011;6146;48.128;11.476;2023-06-24T14:03:53;3.90;;;3.33;;
12165;SDS011;6146;48.128;11.476;2023-06-24T14:06:20;3.70;;;3.40;;
12165;SDS011;6146;48.128;11.476;2023-06-24T14:08:46;3.00;;;2.70;;
12165;SDS011;6146;48.128;11.476;2023-06-24T14:11:12;4.77;;;3.30;;
12165;SDS011;6146;48.128;11.476;2023-06-24T14:13:39;3.37;;;3.07;;
12165;SDS011;6146;48.128;11.476;2023-06-24T14:16:05;3.60;;;3.30;;
12165;SDS011;6146;48.128;11.476;2023-06-24T14:18:31;3.57;;;3.17;;
12165;SDS011;6146;48.128;11.476;2023-06-24T14:20:57;3.27;;;2.97;;
12165;SDS011;6146;48.128;11.476;2023-06-24T14:23:23;4.47;;;3.30;;
12165;SDS011;6146;48.128;11.476;2023-06-24T14:25:50;3.53;;;3.20;;
12165;SDS011;6146;48.128;11.476;2023-06-24T14:28:17;3.70;;;3.40;;
12165;SDS011;6146;48.128;11.476;2023-06-24T14:30:42;4.13;;;3.23;;
12165;SDS011;6146;48.128;11.476;2023-06-24T14:33:08;3.30;;;3.00;;
12165;SDS011;6146;48.128;11.476;2023-06-24T14:35:33;3.50;;;3.20;;
12165;SDS011;6146;48.128;11.476;2023-06-24T14:37:59;3.67;;;3.37;;
12165;SDS011;6146;48.128;11.476;2023-06-24T14:40:25;3.70;;;3.40;;
12165;SDS011;6146;48.128;11.476;2023-06-24T14:42:50;3.60;;;3.10;;
12165;SDS011;6146;48.128;11.476;2023-06-24T14:45:16;3.23;;;2.87;;
12165;SDS011;6146;48.128;11.476;2023-06-24T14:47:41;3.90;;;3.60;;
12165;SDS011;6146;48.128;11.476;2023-06-24T14:50:07;3.30;;;3.00;;
12165;SDS011;6146;48.128;11.476;2023-06-24T14:52:32;4.90;;;3.50;;
12165;SDS011;6146;48.128;11.476;2023-06-24T14:54:58;3.77;;;3.40;;
12165;SDS011;6146;48.128;11.476;2023-06-24T14:57:23;3.50;;;3.20;;
12165;SDS011;6146;48.128;11.476;2023-06-24T14:59:50;7.00;;;3.60;;
12165;SDS011;6146;48.128;11.476;2023-06-24T15:02:16;5.00;;;3.97;;
12165;SDS011;6146;48.128;11.476;2023-06-24T15:04:42;4.90;;;3.10;;
12165;SDS011;6146;48.128;11.476;2023-06-24T15:07:08;3.40;;;3.10;;
12165;SDS011;6146;48.128;11.476;2023-06-24T15:09:33;4.33;;;3.50;;
12165;SDS011;6146;48.128;11.476;2023-06-24T15:11:59;3.93;;;3.60;;
12165;SDS011;6146;48.128;11.476;2023-06-24T15:14:25;3.60;;;3.30;;
12165;SDS011;6146;48.128;11.476;2023-06-24T15:16:51;4.70;;;3.60;;